createdAt,value
2018-07-05T00:02:04.349Z,26.20
2018-07-05T00:04:58.302Z,26.20
2018-07-05T00:07:52.333Z,26.00
2018-07-05T00:10:45.880Z,26.00
2018-07-05T00:13:40.115Z,26.20
2018-07-05T00:16:33.510Z,26.10
2018-07-05T00:19:27.155Z,26.20
2018-07-05T00:22:20.833Z,26.20
2018-07-05T00:25:14.622Z,26.10
2018-07-05T00:28:09.672Z,25.90
2018-07-05T00:31:03.180Z,25.90
2018-07-05T00:33:56.652Z,26.00
2018-07-05T00:36:50.316Z,25.80
2018-07-05T00:39:44.134Z,25.60
2018-07-05T00:42:37.697Z,25.50
2018-07-05T00:45:31.364Z,25.50
2018-07-05T00:48:25.074Z,25.50
2018-07-05T00:51:18.989Z,25.70
2018-07-05T00:54:12.859Z,25.50
2018-07-05T00:57:06.550Z,25.70
2018-07-05T01:00:00.469Z,25.50
2018-07-05T01:05:43.099Z,25.70
2018-07-05T01:08:37.092Z,25.70
2018-07-05T01:11:30.453Z,25.50
2018-07-05T01:14:24.384Z,25.50
2018-07-05T01:17:17.955Z,25.40
2018-07-05T01:20:11.610Z,25.40
2018-07-05T01:23:05.612Z,25.40
2018-07-05T01:25:59.172Z,25.40
2018-07-05T01:28:52.566Z,25.50
2018-07-05T01:31:46.214Z,25.40
2018-07-05T01:34:39.854Z,25.30
2018-07-05T01:37:33.768Z,25.40
2018-07-05T01:40:27.742Z,25.40
2018-07-05T01:43:21.202Z,25.40
2018-07-05T01:46:14.970Z,25.50
2018-07-05T01:49:08.670Z,25.30
2018-07-05T01:52:02.469Z,25.30
2018-07-05T01:54:56.092Z,25.20
2018-07-05T01:57:49.618Z,25.10
2018-07-05T02:00:43.643Z,25.10
2018-07-05T02:03:37.394Z,25.00
2018-07-05T02:06:31.247Z,25.00
2018-07-05T02:12:12.588Z,24.90
2018-07-05T02:15:06.610Z,25.00
2018-07-05T02:17:59.852Z,25.10
2018-07-05T02:20:53.672Z,25.10
2018-07-05T02:23:47.519Z,25.00
2018-07-05T02:26:41.467Z,25.00
2018-07-05T02:29:35.001Z,25.00
2018-07-05T02:32:29.012Z,25.10
2018-07-05T02:35:22.440Z,25.20
2018-07-05T02:38:21.433Z,25.30
2018-07-05T02:41:15.074Z,25.30
2018-07-05T02:44:08.937Z,25.40
2018-07-05T02:47:02.605Z,25.30
2018-07-05T02:49:56.277Z,25.40
2018-07-05T02:52:49.908Z,25.40
2018-07-05T02:55:43.881Z,25.40
2018-07-05T02:58:37.867Z,25.40
2018-07-05T03:01:31.311Z,25.40
2018-07-05T03:04:25.251Z,25.40
2018-07-05T03:07:19.115Z,25.50
2018-07-05T03:10:12.724Z,25.70
2018-07-05T03:13:06.525Z,25.80
2018-07-05T03:16:00.554Z,25.70
2018-07-05T03:18:54.178Z,25.60
2018-07-05T03:21:47.624Z,25.50
2018-07-05T03:24:41.291Z,25.60
2018-07-05T03:27:35.246Z,25.50
2018-07-05T03:30:29.190Z,25.60
2018-07-05T03:33:22.808Z,25.40
2018-07-05T03:36:16.474Z,25.40
2018-07-05T03:39:10.239Z,25.50
2018-07-05T03:42:04.175Z,25.60
2018-07-05T03:44:57.785Z,25.50
2018-07-05T03:47:51.403Z,25.50
2018-07-05T03:50:45.138Z,25.60
2018-07-05T03:53:39.092Z,25.50
2018-07-05T03:56:32.788Z,25.50
2018-07-05T03:59:27.187Z,25.50
2018-07-05T04:02:21.790Z,25.40
2018-07-05T04:05:15.678Z,25.30
2018-07-05T04:08:09.679Z,25.30
2018-07-05T04:11:03.559Z,25.30
2018-07-05T04:13:56.971Z,25.30
2018-07-05T04:16:50.595Z,25.30
2018-07-05T04:19:48.036Z,25.30
2018-07-05T04:22:41.625Z,25.20
2018-07-05T04:25:35.038Z,25.00
2018-07-05T04:28:38.284Z,25.00
2018-07-05T04:31:31.604Z,24.90
2018-07-05T04:34:25.499Z,24.80
2018-07-05T04:37:19.143Z,24.70
2018-07-05T04:40:12.976Z,24.70
2018-07-05T04:43:06.905Z,24.70
2018-07-05T04:46:00.830Z,24.70
2018-07-05T04:48:54.453Z,24.70
2018-07-05T04:51:48.652Z,24.80
2018-07-05T04:54:41.918Z,24.80
2018-07-05T04:57:35.723Z,24.80
2018-07-05T05:00:29.349Z,24.80
2018-07-05T05:03:23.337Z,25.00
2018-07-05T05:06:17.186Z,25.00
2018-07-05T05:09:11.066Z,25.10
2018-07-05T05:12:04.657Z,25.00
2018-07-05T05:14:57.774Z,25.00
2018-07-05T05:17:51.396Z,25.10
2018-07-05T05:20:45.307Z,25.20
2018-07-05T05:23:38.873Z,25.20
2018-07-05T05:26:33.366Z,25.20
2018-07-05T05:29:27.551Z,25.20
2018-07-05T05:32:21.109Z,25.30
2018-07-05T05:35:14.893Z,25.40
2018-07-05T05:38:08.817Z,25.50
2018-07-05T05:41:02.547Z,25.60
2018-07-05T05:43:56.528Z,25.60
2018-07-05T05:46:50.709Z,25.80
2018-07-05T05:49:44.495Z,25.80
2018-07-05T05:52:38.465Z,26.10
2018-07-05T05:55:32.289Z,25.80
2018-07-05T05:58:26.476Z,25.70
2018-07-05T06:01:19.847Z,25.80
2018-07-05T06:04:13.869Z,25.70
2018-07-05T06:07:07.342Z,25.60
2018-07-05T06:10:01.269Z,25.60
2018-07-05T06:12:54.842Z,25.70
2018-07-05T06:15:48.514Z,25.80
2018-07-05T06:18:43.436Z,25.80
2018-07-05T06:24:24.814Z,25.80
2018-07-05T06:27:18.696Z,25.90
2018-07-05T06:30:12.355Z,25.90
2018-07-05T06:33:06.133Z,25.70
2018-07-05T06:35:59.087Z,25.80
2018-07-05T06:38:52.919Z,25.80
2018-07-05T06:41:46.936Z,26.00
2018-07-05T06:44:40.431Z,26.10
2018-07-05T06:47:33.980Z,26.10
2018-07-05T06:50:27.586Z,26.10
2018-07-05T06:53:21.528Z,26.20
2018-07-05T06:56:15.188Z,26.40
2018-07-05T06:59:08.997Z,26.60
2018-07-05T07:04:49.492Z,26.70
2018-07-05T07:07:43.428Z,26.70
2018-07-05T07:10:37.174Z,26.80
2018-07-05T07:13:30.581Z,26.80
2018-07-05T07:16:24.461Z,27.00
2018-07-05T07:19:18.235Z,27.00
2018-07-05T07:22:12.430Z,27.10
2018-07-05T07:25:05.605Z,27.10
2018-07-05T07:27:58.542Z,27.10
2018-07-05T07:30:52.200Z,27.40
2018-07-05T07:33:46.031Z,28.00
2018-07-05T07:36:39.700Z,28.50
2018-07-05T07:39:33.585Z,29.40
2018-07-05T07:42:14.803Z,30.60
2018-07-05T07:44:49.365Z,30.60
2018-07-05T07:47:24.065Z,30.70
2018-07-05T07:49:58.659Z,30.70
2018-07-05T07:55:36.969Z,30.40
2018-07-05T07:58:11.675Z,30.30
2018-07-05T08:00:46.464Z,31.50
2018-07-05T08:03:21.004Z,32.00
2018-07-05T08:05:55.664Z,31.80
2018-07-05T08:08:31.429Z,31.10
2018-07-05T08:11:06.134Z,30.90
2018-07-05T08:13:40.852Z,30.60
2018-07-05T08:16:15.425Z,30.60
2018-07-05T08:18:50.908Z,30.80
2018-07-05T08:21:26.602Z,30.90
2018-07-05T08:24:01.897Z,31.10
2018-07-05T08:26:36.692Z,30.70
2018-07-05T08:29:11.244Z,30.30
2018-07-05T08:31:45.981Z,30.00
2018-07-05T08:34:20.607Z,29.40
2018-07-05T08:36:56.307Z,29.30
2018-07-05T08:39:31.862Z,29.50
2018-07-05T08:42:07.456Z,29.80
2018-07-05T08:44:42.088Z,30.60
2018-07-05T08:47:17.576Z,31.50
2018-07-05T08:49:53.169Z,31.80
2018-07-05T08:52:28.641Z,31.70
2018-07-05T08:55:04.111Z,33.60
2018-07-05T08:57:38.684Z,33.00
2018-07-05T09:00:13.504Z,34.00
2018-07-05T09:02:47.973Z,32.80
2018-07-05T09:05:22.762Z,32.70
2018-07-05T09:07:58.321Z,33.30
2018-07-05T09:10:33.275Z,34.00
2018-07-05T09:13:08.584Z,34.30
2018-07-05T09:15:43.431Z,33.80
2018-07-05T09:18:19.015Z,33.70
2018-07-05T09:20:54.296Z,35.20
2018-07-05T09:23:29.222Z,35.80
2018-07-05T09:26:04.271Z,34.80
2018-07-05T09:28:39.004Z,35.00
2018-07-05T09:31:14.375Z,34.60
2018-07-05T09:33:49.017Z,33.70
2018-07-05T09:36:24.521Z,34.00
2018-07-05T09:38:59.357Z,34.00
2018-07-05T09:41:34.503Z,32.70
2018-07-05T09:44:09.552Z,32.60
2018-07-05T09:46:44.375Z,32.90
2018-07-05T09:49:19.135Z,33.80
2018-07-05T09:51:54.254Z,34.20
2018-07-05T09:54:29.417Z,34.90
2018-07-05T09:57:04.031Z,35.80
2018-07-05T09:59:39.382Z,35.40
2018-07-05T10:02:13.988Z,34.50
2018-07-05T10:04:49.054Z,34.00
2018-07-05T10:07:24.597Z,35.10
2018-07-05T10:09:59.155Z,34.30
2018-07-05T10:12:33.986Z,34.80
2018-07-05T10:15:09.484Z,35.10
2018-07-05T10:17:44.069Z,37.00
2018-07-05T10:20:18.691Z,35.40
2018-07-05T10:22:53.364Z,34.70
2018-07-05T10:25:28.142Z,36.00
2018-07-05T10:28:02.818Z,36.90
2018-07-05T10:30:50.646Z,36.30
2018-07-05T10:33:44.206Z,35.70
2018-07-05T10:36:19.778Z,35.70
2018-07-05T10:38:55.210Z,36.60
2018-07-05T10:41:42.888Z,37.20
2018-07-05T10:44:36.511Z,36.80
2018-07-05T10:47:30.385Z,36.60
2018-07-05T10:50:25.344Z,37.70
2018-07-05T10:53:18.740Z,36.30
2018-07-05T10:56:12.930Z,35.70
2018-07-05T10:59:06.678Z,37.10
2018-07-05T11:02:00.564Z,37.60
2018-07-05T11:07:42.614Z,36.10
2018-07-05T11:10:36.453Z,36.30
2018-07-05T11:13:30.329Z,36.60
2018-07-05T11:16:24.211Z,36.10
2018-07-05T11:19:18.015Z,37.20
2018-07-05T11:22:11.733Z,37.20
2018-07-05T11:25:05.327Z,36.80
2018-07-05T11:27:59.224Z,37.40
2018-07-05T11:30:53.085Z,37.30
2018-07-05T11:33:47.036Z,37.00
2018-07-05T11:36:40.608Z,37.60
2018-07-05T11:39:34.541Z,36.80
2018-07-05T11:42:28.473Z,37.00
2018-07-05T11:45:22.287Z,39.20
2018-07-05T11:48:15.819Z,37.90
2018-07-05T11:51:09.703Z,38.10
2018-07-05T11:54:03.289Z,38.20
2018-07-05T11:56:57.390Z,38.40
2018-07-05T11:59:51.031Z,37.80
2018-07-05T12:02:44.794Z,36.80
2018-07-05T12:05:38.875Z,37.50
2018-07-05T12:08:32.345Z,38.30
2018-07-05T12:11:26.240Z,38.40
2018-07-05T12:14:20.258Z,37.80
2018-07-05T12:17:13.466Z,38.60
2018-07-05T12:20:07.440Z,38.70
2018-07-05T12:25:48.994Z,38.70
2018-07-05T12:28:42.606Z,37.70
2018-07-05T12:31:36.450Z,36.90
2018-07-05T12:34:30.081Z,36.40
2018-07-05T12:40:11.478Z,37.60
2018-07-05T12:43:05.356Z,37.60
2018-07-05T12:45:59.073Z,35.80
2018-07-05T12:48:53.043Z,35.80
2018-07-05T12:51:46.802Z,36.00
2018-07-05T12:54:40.156Z,36.00
2018-07-05T12:57:34.161Z,34.60
2018-07-05T13:03:15.372Z,35.40
2018-07-05T13:06:09.759Z,35.30
2018-07-05T13:09:05.263Z,34.70
2018-07-05T13:11:58.791Z,33.30
2018-07-05T13:14:52.672Z,32.40
2018-07-05T13:17:46.401Z,31.60
2018-07-05T13:20:40.146Z,31.40
2018-07-05T13:23:34.024Z,31.00
2018-07-05T13:26:27.772Z,31.10
2018-07-05T13:29:21.307Z,31.20
2018-07-05T13:32:15.167Z,30.70
2018-07-05T13:35:09.049Z,30.80
2018-07-05T13:38:03.602Z,30.80
2018-07-05T13:40:57.579Z,30.90
2018-07-05T13:43:50.941Z,31.00
2018-07-05T13:46:44.873Z,30.90
2018-07-05T13:49:38.620Z,30.30
2018-07-05T13:52:32.296Z,30.40
2018-07-05T13:55:26.244Z,30.20
2018-07-05T14:01:07.375Z,30.30
2018-07-05T14:04:01.222Z,30.30
2018-07-05T14:06:55.092Z,30.00
2018-07-05T14:09:48.688Z,30.30
2018-07-05T14:12:42.486Z,29.90
2018-07-05T14:15:36.565Z,29.90
2018-07-05T14:18:29.909Z,29.90
2018-07-05T14:21:22.993Z,29.70
2018-07-05T14:24:16.608Z,29.60
2018-07-05T14:27:10.142Z,29.90
2018-07-05T14:30:04.116Z,29.90
2018-07-05T14:32:58.064Z,30.00
2018-07-05T14:35:51.616Z,29.80
2018-07-05T14:38:45.181Z,29.60
2018-07-05T14:41:38.852Z,29.80
2018-07-05T14:47:20.466Z,29.20
2018-07-05T14:50:14.236Z,29.30
2018-07-05T14:53:08.244Z,29.10
2018-07-05T14:56:01.528Z,29.00
2018-07-05T14:58:55.425Z,29.10
2018-07-05T15:01:49.333Z,28.80
2018-07-05T15:04:42.925Z,28.80
2018-07-05T15:07:38.832Z,29.10
2018-07-05T15:10:32.616Z,28.90
2018-07-05T15:13:26.256Z,28.60
2018-07-05T15:16:20.039Z,28.70
2018-07-05T15:19:14.008Z,28.70
2018-07-05T15:22:07.400Z,28.80
2018-07-05T15:25:01.115Z,28.90
2018-07-05T15:27:54.961Z,28.80
2018-07-05T15:30:48.868Z,28.70
2018-07-05T15:33:42.680Z,28.20
2018-07-05T15:36:37.237Z,27.80
2018-07-05T15:39:30.547Z,27.50
2018-07-05T15:42:24.159Z,27.50
2018-07-05T15:45:18.534Z,27.10
2018-07-05T15:48:11.566Z,27.20
2018-07-05T15:51:05.441Z,27.10
2018-07-05T15:54:00.602Z,27.10
2018-07-05T15:56:54.039Z,27.00
2018-07-05T15:59:47.457Z,26.90
2018-07-05T16:02:41.565Z,27.00
2018-07-05T16:05:35.089Z,27.10
2018-07-05T16:08:29.724Z,26.90
2018-07-05T16:11:22.847Z,27.10
2018-07-05T16:14:16.575Z,27.10
2018-07-05T16:17:10.502Z,27.30
2018-07-05T16:20:03.898Z,27.00
2018-07-05T16:25:45.602Z,27.40
2018-07-05T16:28:39.495Z,27.00
2018-07-05T16:31:33.216Z,26.80
2018-07-05T16:34:27.296Z,26.80
2018-07-05T16:37:20.664Z,27.00
2018-07-05T16:40:14.274Z,26.90
2018-07-05T16:43:07.950Z,26.50
2018-07-05T16:46:01.786Z,26.40
2018-07-05T16:48:55.419Z,26.80
2018-07-05T16:51:49.128Z,26.60
2018-07-05T16:54:42.864Z,26.60
2018-07-05T16:57:36.705Z,26.60
2018-07-05T17:00:30.315Z,26.60
2018-07-05T17:03:24.408Z,26.60
2018-07-05T17:06:17.776Z,26.70
2018-07-05T17:09:11.241Z,26.70
2018-07-05T17:12:05.116Z,26.60
2018-07-05T17:14:58.906Z,26.50
2018-07-05T17:17:52.480Z,26.30
2018-07-05T17:20:46.570Z,26.20
2018-07-05T17:23:40.304Z,26.20
2018-07-05T17:26:34.108Z,26.20
2018-07-05T17:29:27.828Z,26.40
2018-07-05T17:32:21.509Z,26.20
2018-07-05T17:38:03.392Z,25.90
2018-07-05T17:40:57.262Z,26.00
2018-07-05T17:43:51.691Z,26.10
2018-07-05T17:46:44.737Z,26.00
2018-07-05T17:49:38.630Z,26.10
2018-07-05T17:52:32.227Z,26.20
2018-07-05T17:55:25.744Z,26.40
2018-07-05T17:58:19.538Z,26.50
2018-07-05T18:01:13.168Z,26.30
2018-07-05T18:04:07.778Z,26.10
2018-07-05T18:07:01.482Z,26.00
2018-07-05T18:09:55.376Z,26.00
2018-07-05T18:12:49.082Z,25.90
2018-07-05T18:15:42.940Z,25.70
2018-07-05T18:18:36.812Z,25.50
2018-07-05T18:21:30.455Z,25.40
2018-07-05T18:24:24.110Z,25.60
2018-07-05T18:27:17.997Z,25.60
2018-07-05T18:30:12.309Z,25.40
2018-07-05T18:33:05.643Z,25.40
2018-07-05T18:35:59.539Z,25.40
2018-07-05T18:38:53.200Z,25.20
2018-07-05T18:41:46.875Z,25.30
2018-07-05T18:44:40.770Z,25.40
2018-07-05T18:47:34.374Z,25.30
2018-07-05T18:50:27.946Z,25.20
2018-07-05T18:53:22.019Z,25.20
2018-07-05T18:56:15.908Z,25.10
2018-07-05T18:59:09.717Z,25.40
2018-07-05T19:02:03.202Z,25.20
2018-07-05T19:04:57.230Z,25.10
2018-07-05T19:07:51.921Z,25.10
2018-07-05T19:10:45.816Z,25.30
2018-07-05T19:13:39.729Z,25.30
2018-07-05T19:16:33.308Z,25.40
2018-07-05T19:19:27.296Z,25.30
2018-07-05T19:22:21.118Z,25.40
2018-07-05T19:25:14.722Z,25.30
2018-07-05T19:28:08.553Z,25.20
2018-07-05T19:31:02.290Z,25.10
2018-07-05T19:33:55.743Z,25.00
2018-07-05T19:36:49.966Z,25.10
2018-07-05T19:39:43.227Z,22.20
2018-07-05T19:42:37.030Z,25.00
2018-07-05T19:45:30.747Z,25.00
2018-07-05T19:48:24.424Z,25.00
2018-07-05T19:51:18.140Z,25.00
2018-07-05T19:54:12.317Z,25.20
2018-07-05T19:57:06.211Z,25.30
2018-07-05T20:00:00.270Z,25.40
2018-07-05T20:02:54.085Z,25.20
2018-07-05T20:05:49.145Z,25.10
2018-07-05T20:08:42.452Z,25.00
2018-07-05T20:11:36.402Z,24.90
2018-07-05T20:14:30.007Z,24.90
2018-07-05T20:17:22.977Z,24.90
2018-07-05T20:20:16.371Z,25.00
2018-07-05T20:23:10.222Z,25.10
2018-07-05T20:26:04.678Z,25.20
2018-07-05T20:28:58.430Z,25.10
2018-07-05T20:31:53.105Z,25.20
2018-07-05T20:34:47.291Z,25.30
2018-07-05T20:37:40.662Z,25.30
2018-07-05T20:40:35.038Z,25.30
2018-07-05T20:43:30.092Z,25.20
2018-07-05T20:46:24.330Z,25.30
2018-07-05T20:49:19.071Z,25.40
2018-07-05T20:52:13.476Z,25.30
2018-07-05T20:55:07.945Z,25.30
2018-07-05T20:58:01.694Z,25.10
2018-07-05T21:00:57.482Z,25.00
2018-07-05T21:03:51.451Z,24.80
2018-07-05T21:06:45.511Z,24.80
2018-07-05T21:09:39.322Z,24.90
2018-07-05T21:12:33.257Z,25.10
2018-07-05T21:15:26.496Z,25.00
2018-07-05T21:18:20.195Z,25.10
2018-07-05T21:21:14.683Z,25.10
2018-07-05T21:24:08.018Z,25.10
2018-07-05T21:27:01.656Z,25.10
2018-07-05T21:29:55.578Z,25.00
2018-07-05T21:32:48.988Z,25.20
2018-07-05T21:35:42.802Z,25.20
2018-07-05T21:38:36.698Z,25.30
2018-07-05T21:41:31.041Z,25.30
2018-07-05T21:44:24.738Z,25.30
2018-07-05T21:47:18.778Z,25.30
2018-07-05T21:50:12.285Z,25.20
2018-07-05T21:53:05.939Z,25.00
2018-07-05T21:55:59.872Z,25.10
2018-07-05T21:58:53.470Z,24.90
2018-07-05T22:01:47.371Z,25.00
2018-07-05T22:04:41.240Z,25.10
2018-07-05T22:07:35.349Z,25.00
2018-07-05T22:10:28.526Z,25.10
2018-07-05T22:13:22.776Z,25.10
2018-07-05T22:16:16.430Z,25.00
2018-07-05T22:19:15.282Z,25.10
2018-07-05T22:24:19.615Z,25.30
2018-07-05T22:30:10.134Z,25.20
2018-07-05T22:33:04.163Z,25.30
2018-07-05T22:35:58.706Z,25.20
2018-07-05T22:38:53.260Z,25.20
2018-07-05T22:41:47.350Z,25.20
2018-07-05T22:44:41.094Z,25.10
2018-07-05T22:47:34.758Z,25.30
2018-07-05T22:50:28.352Z,25.20
2018-07-05T22:53:22.680Z,25.20
2018-07-05T22:56:16.901Z,25.30
2018-07-05T22:59:10.689Z,25.00
2018-07-05T23:02:04.870Z,24.90
2018-07-05T23:04:58.197Z,25.10
2018-07-05T23:07:51.970Z,25.00
2018-07-05T23:10:45.776Z,25.00
2018-07-05T23:13:39.579Z,25.00
2018-07-05T23:16:33.493Z,25.00
2018-07-05T23:19:27.446Z,24.90
2018-07-05T23:22:21.354Z,25.00
2018-07-05T23:25:14.899Z,24.90
2018-07-05T23:28:09.542Z,24.90
2018-07-05T23:31:03.644Z,25.10
2018-07-05T23:33:57.305Z,25.10
2018-07-05T23:36:50.991Z,25.30
2018-07-05T23:39:44.790Z,25.30
2018-07-05T23:42:38.537Z,25.20
2018-07-05T23:45:32.144Z,25.30
2018-07-05T23:48:25.987Z,25.40
2018-07-05T23:51:19.595Z,25.30
2018-07-05T23:54:13.532Z,25.10
2018-07-05T23:57:07.257Z,25.20
